ADDS METAR Data INFO
IDs: Format: Raw Decoded Include TAF

Data at: 1748 UTC 21 Oct 2017

METAR for:KDAB (Daytona Beach Intl, FL, US)
Text:KDAB 211653Z 08010G16KT 10SM SCT038 SCT055 BKN300 28/20 A3019 RMK AO2 SLP221 T02780200
Temperature: 27.8°C ( 82°F)
Dewpoint: 20.0°C ( 68°F) [RH = 63%]
Pressure (altimeter):30.19 inches Hg (1022.4 mb) [Sea level pressure: 1022.1 mb]
Winds:from the E (80 degrees) at 12 MPH (10 knots; 5.1 m/s) gusting to 18 MPH (16 knots; 8.2 m/s)
Visibility:10 or more sm (16+ km)
Ceiling:30000 feet AGL
Clouds: scattered clouds at 3800 feet AGL, scattered clouds at 5500 feet AGL, broken clouds at 30000 feet AGL